Lansdale, Pennsylvania
Current Conditions -  °F | °C
As of 12:55 PM on Saturday 22 Nov 2014 (Local Time) from KLOM Reporting Station
Clear Clear  
Wind Chill: 37°   Ceiling: Unl
Heat Index: 43°   Visibility: 10mi
Dew Point: 18°   Wind: 10mph
Humidity: 36%   Direction: 220°SW
Pressure: 30.36"   Gusts: 17mph
Location:  40.24°N, 75.28°W
Report Text: KLOM 221755Z AUTO 22009G15KT 10SM CLR 06/M08 A3036 RMK AO1
Loading
Personal Weather Stations






























Interactive Weather Map New forecast layout! Learn more

10-Day Weather Forecast

Advertisements
Track Severe Weather on mobile